»·PEaware :: N82806 KFOT-77S

N82806 :: KFOT-77S

FLIGHT INFORMATION

Flight Status: Arrived
Operator: Privately registered:
United States
More flights under this callsign
Pilot: Gregory A. (9731)
Aircraft: PIPER PA-34 SENECA
(PA34)
More flights by this aircraft type
Origin: KFOT Rohnerville
United States
Destination: 77S Hobby
United States
More flights between these airports :: More routes between these airports
Route: FOT V494 CEC V122 PAPLE V495 RBG V448 FRITT
File this flight plan on PilotEdge
Remarks:
Altitude:
(Current/Filed)
12,000ft
Speed:
(Current/Filed)
190kts
Departed: 02-Jun-18 01:30 PM
Arrived: 02-Jun-18 02:48 PM
Distance/Time
Traveled:
209nm/1:18
Distance/Time
To Go:
Arrived

Flight Plot

Page will automatically refresh every two minutes.

Flight plan parsing failed; only flown route is shown


Map Options




Map Legend


Flown Route
Filed Route
Departure Airport
Arrival Airport
Navaid (VOR, NDB)
Fix

Horizontal Profiles

Position Reports

Time Latitude Longitude Heading Altitude Ground
Speed
02-Jun-18 13:21 40.554748 -124.131508 211 358ft 0kts
02-Jun-18 13:22 40.554746 -124.131510 211 358ft 0kts
02-Jun-18 13:23 40.554744 -124.131511 211 358ft 0kts
02-Jun-18 13:24 40.554743 -124.131513 211 358ft 0kts
02-Jun-18 13:25 40.554742 -124.131513 211 358ft 0kts
02-Jun-18 13:26 40.554376 -124.131869 219 358ft 0kts
02-Jun-18 13:27 40.555948 -124.136119 306 358ft 19kts
02-Jun-18 13:28 40.557340 -124.138129 258 358ft 0kts
02-Jun-18 13:29 40.557290 -124.138216 186 358ft 2kts
02-Jun-18 13:30 40.553984 -124.117245 34 748ft 113kts
02-Jun-18 13:31 40.582186 -124.136151 310 1818ft 123kts
02-Jun-18 13:32 40.602303 -124.172381 318 2841ft 123kts
02-Jun-18 13:33 40.629366 -124.198072 325 3821ft 117kts
02-Jun-18 13:34 40.656167 -124.221514 324 4798ft 114kts
02-Jun-18 13:35 40.665716 -124.229821 324 5150ft 111kts
02-Jun-18 13:36 40.696177 -124.243555 343 6179ft 121kts
02-Jun-18 13:37 40.730370 -124.255612 343 7218ft 133kts
02-Jun-18 13:38 40.767428 -124.268635 343 8244ft 141kts
02-Jun-18 13:39 40.805883 -124.282186 343 9245ft 142kts
02-Jun-18 13:40 40.844013 -124.295663 341 10246ft 142kts
02-Jun-18 13:41 40.882404 -124.309250 340 11256ft 143kts
02-Jun-18 13:42 40.922287 -124.323426 340 11957ft 164kts
02-Jun-18 13:43 40.971292 -124.340752 341 11953ft 192kts
02-Jun-18 13:44 41.023908 -124.359353 341 11951ft 198kts
02-Jun-18 13:45 41.077606 -124.378445 341 11951ft 200kts
02-Jun-18 13:46 41.131694 -124.397723 341 11951ft 201kts
02-Jun-18 13:47 41.185673 -124.417011 341 11952ft 201kts
02-Jun-18 13:48 41.240570 -124.428848 4 11956ft 205kts
02-Jun-18 13:49 41.296616 -124.412166 11 11954ft 206kts
02-Jun-18 13:50 41.352087 -124.392845 11 11955ft 206kts
02-Jun-18 13:51 41.407708 -124.373220 11 11956ft 206kts
02-Jun-18 13:52 41.463089 -124.353623 11 11957ft 206kts
02-Jun-18 13:53 41.518573 -124.333940 12 11958ft 205kts
02-Jun-18 13:54 41.573817 -124.314309 11 11959ft 205kts
02-Jun-18 13:55 41.629031 -124.294655 11 11959ft 205kts
02-Jun-18 13:56 41.684402 -124.274909 12 11960ft 205kts
02-Jun-18 13:57 41.739577 -124.255194 12 11960ft 205kts
02-Jun-18 13:58 41.788896 -124.219660 47 11963ft 209kts
02-Jun-18 13:59 41.824441 -124.157207 52 11960ft 210kts
02-Jun-18 14:00 41.858722 -124.093664 52 11962ft 210kts
02-Jun-18 14:01 41.892974 -124.029768 52 11965ft 210kts
02-Jun-18 14:02 41.927063 -123.965999 52 11968ft 210kts
02-Jun-18 14:03 41.961108 -123.902172 52 11970ft 210kts
02-Jun-18 14:04 41.995260 -123.838003 52 11972ft 210kts
02-Jun-18 14:05 42.038665 -123.790688 15 11952ft 206kts
02-Jun-18 14:06 42.092949 -123.765468 17 11959ft 205kts
02-Jun-18 14:07 42.147886 -123.737942 17 11945ft 214kts
02-Jun-18 14:08 42.202099 -123.710411 17 11961ft 203kts
02-Jun-18 14:09 42.254881 -123.684944 10 11967ft 202kts
02-Jun-18 14:10 42.309843 -123.668278 9 11966ft 203kts
02-Jun-18 14:11 42.364880 -123.650486 11 11965ft 203kts
02-Jun-18 14:12 42.419660 -123.630071 12 11972ft 203kts
02-Jun-18 14:13 42.474079 -123.608637 12 11970ft 203kts
02-Jun-18 14:14 42.528610 -123.588332 11 11968ft 203kts
02-Jun-18 14:15 42.583442 -123.569195 10 11967ft 203kts
02-Jun-18 14:16 42.638039 -123.550399 10 11966ft 202kts
02-Jun-18 14:17 42.692684 -123.530869 10 11968ft 202kts
02-Jun-18 14:18 42.746917 -123.510672 10 11971ft 202kts
02-Jun-18 14:19 42.801151 -123.491012 10 11977ft 201kts
02-Jun-18 14:20 42.855395 -123.471521 10 11987ft 201kts
02-Jun-18 14:21 42.909358 -123.451924 10 11999ft 201kts
02-Jun-18 14:22 42.963493 -123.432284 10 12012ft 200kts
02-Jun-18 14:23 43.017349 -123.412515 10 12026ft 200kts
02-Jun-18 14:24 43.071746 -123.402499 0 12036ft 197kts
02-Jun-18 14:25 43.125444 -123.387810 27 12053ft 203kts
02-Jun-18 14:26 43.178063 -123.370443 357 12050ft 196kts
02-Jun-18 14:27 43.232529 -123.364506 1 12052ft 197kts
02-Jun-18 14:28 43.287203 -123.356238 1 12028ft 198kts
02-Jun-18 14:29 43.344005 -123.347042 3 11510ft 209kts
02-Jun-18 14:30 43.401260 -123.347588 0 11030ft 208kts
02-Jun-18 14:31 43.459064 -123.337183 7 10531ft 209kts
02-Jun-18 14:32 43.517503 -123.324980 7 9763ft 215kts
02-Jun-18 14:33 43.576578 -123.314852 7 8962ft 210kts
02-Jun-18 14:34 43.634609 -123.306548 8 8161ft 209kts
02-Jun-18 14:35 43.691970 -123.296489 10 7362ft 207kts
02-Jun-18 14:36 43.744180 -123.286633 10 6628ft 205kts
02-Jun-18 14:37 43.800591 -123.277149 9 5829ft 203kts
02-Jun-18 14:38 43.855852 -123.267012 23 5093ft 193kts
02-Jun-18 14:39 43.875483 -123.207798 75 5039ft 167kts
02-Jun-18 14:40 43.890363 -123.148013 70 5039ft 161kts
02-Jun-18 14:41 43.905483 -123.087329 68 4629ft 175kts
02-Jun-18 14:42 43.925448 -123.024743 67 3945ft 178kts
02-Jun-18 14:43 43.954826 -122.979934 356 3249ft 174kts
02-Jun-18 14:44 43.998859 -123.005044 302 2563ft 179kts
02-Jun-18 14:45 43.974014 -123.042772 167 1914ft 143kts
02-Jun-18 14:46 43.950264 -123.020298 86 1489ft 78kts
02-Jun-18 14:47 43.936837 -123.007459 178 629ft 98kts
02-Jun-18 14:48 43.927905 -123.006278 173 543ft 15kts
02-Jun-18 14:49 43.927280 -123.006966 356 543ft 8kts
02-Jun-18 14:50 43.930034 -123.007501 292 543ft 5kts

Navigation Log

Ident Type
Flight plan parsing failed, navigation log unavailable